Time;durP1;ratioP1;P1;durP2;ratioP2;P2;SDS_P1;SDS_P2;PMS_P1;PMS_P2;Temp;Humidity;BMP_temperature;BMP_pressure;BME280_temperature;BME280_humidity;BME280_pressure;Samples;Min_cycle;Max_cycle;Signal;HPM_P1;HPM_P2
2021/07/23 00:09:21;;;;;;;13.38;7.70;;;19.30;99.90;;;;;;6691446;88;20229;-78
2021/07/23 00:19:22;;;;;;;14.10;8.07;;;19.20;99.90;;;;;;6704276;88;20277;-76
2021/07/23 00:29:22;;;;;;;14.52;7.97;;;18.90;99.90;;;;;;6704608;88;20234;-79
2021/07/23 00:39:23;;;;;;;12.55;7.40;;;18.80;99.90;;;;;;6715371;88;20318;-77
2021/07/23 00:49:24;;;;;;;10.80;7.18;;;18.70;99.90;;;;;;6697903;88;20211;-77
2021/07/23 00:59:25;;;;;;;13.32;7.75;;;18.60;99.90;;;;;;6692940;88;20660;-78
2021/07/23 01:09:25;;;;;;;14.13;7.03;;;18.60;99.90;;;;;;6698000;88;20216;-78
2021/07/23 01:19:31;;;;;;;15.18;7.95;;;18.40;99.90;;;;;;6695930;88;20187;-78
2021/07/23 01:29:32;;;;;;;12.43;7.78;;;18.40;99.90;;;;;;6697826;88;20283;-77
2021/07/23 01:39:34;;;;;;;14.30;7.75;;;18.40;99.90;;;;;;6698484;88;20246;-78
2021/07/23 01:49:34;;;;;;;13.45;8.07;;;18.20;99.90;;;;;;6696272;88;20188;-77
2021/07/23 01:59:35;;;;;;;10.95;7.35;;;18.10;99.90;;;;;;6697401;88;20256;-77
2021/07/23 02:09:35;;;;;;;11.73;7.18;;;17.90;99.90;;;;;;6692337;88;20289;-77
2021/07/23 02:19:36;;;;;;;13.75;7.90;;;17.80;99.90;;;;;;6695617;88;20318;-78
2021/07/23 02:29:36;;;;;;;13.10;8.07;;;17.80;99.90;;;;;;6701811;88;20215;-77
2021/07/23 02:39:37;;;;;;;15.18;7.78;;;17.70;99.90;;;;;;6697661;88;20689;-78
2021/07/23 02:49:37;;;;;;;15.05;8.20;;;17.60;99.90;;;;;;6695170;88;20298;-76
2021/07/23 02:59:38;;;;;;;13.50;7.85;;;17.40;99.90;;;;;;6693951;88;20223;-77
2021/07/23 03:09:39;;;;;;;13.05;8.38;;;17.30;99.90;;;;;;6698782;88;20202;-77
2021/07/23 03:19:39;;;;;;;14.27;8.35;;;17.20;99.90;;;;;;6695353;88;20208;-77
2021/07/23 03:29:40;;;;;;;13.95;8.25;;;17.10;99.90;;;;;;6694528;88;20317;-78
2021/07/23 03:39:40;;;;;;;16.95;8.35;;;17.00;99.90;;;;;;6704460;88;20199;-78
2021/07/23 03:49:41;;;;;;;14.52;8.40;;;16.90;99.90;;;;;;6694101;88;20204;-78
2021/07/23 03:59:41;;;;;;;16.77;8.75;;;16.80;99.90;;;;;;6699126;88;20234;-78
2021/07/23 04:09:42;;;;;;;14.75;8.73;;;16.60;99.90;;;;;;6701019;88;20223;-77
2021/07/23 04:19:42;;;;;;;16.23;9.35;;;16.50;99.90;;;;;;6700037;88;21169;-78
2021/07/23 04:29:47;;;;;;;18.62;9.23;;;16.60;99.90;;;;;;6695822;88;20215;-77
2021/07/23 04:39:47;;;;;;;16.52;9.13;;;16.50;99.90;;;;;;6694356;88;20237;-77
2021/07/23 04:49:48;;;;;;;15.55;9.05;;;16.30;99.90;;;;;;6695056;88;20667;-78
2021/07/23 04:59:48;;;;;;;14.98;9.50;;;16.50;99.90;;;;;;6699839;88;20194;-78
2021/07/23 05:09:49;;;;;;;17.57;9.27;;;16.60;99.90;;;;;;6696646;88;20721;-78
2021/07/23 05:19:50;;;;;;;17.27;9.32;;;16.60;99.90;;;;;;6690992;88;20264;-77
2021/07/23 05:29:51;;;;;;;19.33;8.82;;;16.60;99.90;;;;;;6702669;88;20179;-77
2021/07/23 05:39:52;;;;;;;15.38;8.63;;;16.60;99.90;;;;;;6709079;88;20205;-80
2021/07/23 05:49:52;;;;;;;14.70;8.50;;;16.60;99.90;;;;;;6721233;88;20235;-77
2021/07/23 05:59:53;;;;;;;18.37;10.10;;;17.00;99.90;;;;;;6706083;88;20213;-78
2021/07/23 06:09:54;;;;;;;16.25;9.50;;;17.20;99.90;;;;;;6699785;88;20187;-79
2021/07/23 06:29:57;;;;;;;16.42;10.02;;;18.50;99.90;;;;;;6705386;88;20978;-77
2021/07/23 06:39:58;;;;;;;16.08;9.85;;;19.30;99.90;;;;;;6703067;88;20227;-77
2021/07/23 06:49:59;;;;;;;16.87;9.95;;;19.60;99.90;;;;;;6687943;88;20193;-81
2021/07/23 06:59:59;;;;;;;22.77;10.43;;;20.20;99.90;;;;;;6717255;88;20914;-80
2021/07/23 07:21:02;;;;;;;15.63;9.50;;;21.10;99.90;;;;;;6755537;88;20196;-81
2021/07/23 07:31:02;;;;;;;17.77;10.10;;;21.80;99.90;;;;;;6753737;88;20250;-80
2021/07/23 07:41:03;;;;;;;16.25;9.95;;;22.50;99.90;;;;;;6753385;88;20651;-81
2021/07/23 07:51:05;;;;;;;17.90;9.68;;;22.70;99.90;;;;;;6752850;88;20291;-80
2021/07/23 08:51:24;;;;;;;13.75;8.50;;;25.80;99.90;;;;;;6727204;88;20211;-82
2021/07/23 09:01:24;;;;;;;17.70;9.60;;;26.60;99.90;;;;;;6726960;88;20178;-82
2021/07/23 09:11:27;;;;;;;19.73;10.65;;;27.40;99.40;;;;;;6711661;88;20193;-83
2021/07/23 09:21:27;;;;;;;;;;;27.60;98.30;;;;;;6714011;88;20771;-83
2021/07/23 09:31:31;;;;;;;21.20;11.10;;;28.10;96.60;;;;;;6730890;88;20057;-82
2021/07/23 09:41:34;;;;;;;17.70;10.80;;;28.20;96.30;;;;;;6733716;88;20326;-82
2021/07/23 09:51:37;;;;;;;23.85;12.40;;;28.90;95.50;;;;;;6733716;88;20184;-82
2021/07/23 10:01:41;;;;;;;21.12;11.77;;;29.10;93.90;;;;;;6729712;88;20186;-82
2021/07/23 10:11:43;;;;;;;18.30;11.90;;;29.50;93.40;;;;;;6711198;88;20298;-81
2021/07/23 10:21:44;;;;;;;20.62;11.73;;;30.10;91.70;;;;;;6711422;88;20244;-82
2021/07/23 10:31:45;;;;;;;19.12;11.00;;;29.20;94.20;;;;;;6707837;88;20211;-83
2021/07/23 10:41:46;;;;;;;18.17;10.67;;;30.90;92.30;;;;;;6707588;88;20915;-82
2021/07/23 11:12:40;;;;;;;21.98;13.35;;;31.60;87.00;;;;;;6785553;77;20833;-83
2021/07/23 11:22:47;;;;;;;18.80;11.15;;;29.10;89.90;;;;;;6743609;88;20716;-81
2021/07/23 11:32:58;;;;;;;20.33;11.63;;;29.90;91.10;;;;;;6722027;88;20170;-81
2021/07/23 11:43:01;;;;;;;19.77;12.33;;;32.00;88.10;;;;;;6727434;88;20238;-80
2021/07/23 11:53:05;;;;;;;25.85;13.93;;;32.20;85.00;;;;;;6717280;88;20653;-80
2021/07/23 12:03:18;;;;;;;17.85;11.32;;;33.10;81.10;;;;;;6714275;88;20321;-81
2021/07/23 12:13:20;;;;;;;17.62;10.82;;;33.50;80.00;;;;;;6713981;88;20286;-80
2021/07/23 12:23:41;;;;;;;19.23;12.50;;;34.20;78.40;;;;;;6737554;77;20225;-78
2021/07/23 12:33:42;;;;;;;18.40;11.03;;;34.30;74.20;;;;;;6701796;88;20166;-78
2021/07/23 12:44:03;;;;;;;16.27;10.55;;;31.50;78.80;;;;;;6704759;88;20709;-78
2021/07/23 12:54:04;;;;;;;16.03;9.37;;;32.60;76.90;;;;;;6701488;88;21009;-78
2021/07/23 13:04:04;;;;;;;14.97;10.07;;;32.60;76.90;;;;;;6700749;88;20197;-77
2021/07/23 13:14:05;;;;;;;12.80;8.43;;;32.10;76.30;;;;;;6704474;88;20206;-78
2021/07/23 13:24:07;;;;;;;11.73;7.68;;;32.20;76.50;;;;;;6703391;88;20215;-78
2021/07/23 13:34:08;;;;;;;9.65;6.95;;;33.70;72.60;;;;;;6702120;88;20211;-79
2021/07/23 13:44:09;;;;;;;14.10;8.02;;;35.10;71.10;;;;;;6705962;88;20210;-79
2021/07/23 13:54:09;;;;;;;10.85;7.10;;;34.40;69.30;;;;;;6709241;88;20182;-80
2021/07/23 14:04:10;;;;;;;12.15;7.20;;;34.60;69.90;;;;;;6707282;88;20209;-77
2021/07/23 14:14:10;;;;;;;10.65;7.93;;;34.40;68.80;;;;;;6702949;88;20276;-78
2021/07/23 14:24:11;;;;;;;12.95;8.30;;;35.10;66.60;;;;;;6703387;88;20250;-79
2021/07/23 14:34:11;;;;;;;8.55;6.90;;;34.50;64.70;;;;;;6700914;88;20205;-77
2021/07/23 14:44:12;;;;;;;11.35;6.57;;;33.90;67.30;;;;;;6699506;88;20358;-78
2021/07/23 14:54:12;;;;;;;8.88;5.97;;;34.50;65.30;;;;;;6702568;88;20206;-78
2021/07/23 15:04:13;;;;;;;8.85;6.75;;;34.50;65.80;;;;;;6702128;88;20344;-77
2021/07/23 15:14:14;;;;;;;11.03;7.03;;;34.10;64.90;;;;;;6698048;88;20206;-78
2021/07/23 15:24:14;;;;;;;10.38;6.55;;;33.60;66.70;;;;;;6701535;88;20209;-77
2021/07/23 15:34:15;;;;;;;9.38;7.00;;;33.70;65.70;;;;;;6700778;88;20795;-79
2021/07/23 15:44:15;;;;;;;10.45;7.50;;;33.30;66.50;;;;;;6702497;88;20211;-78
2021/07/23 15:54:16;;;;;;;11.52;6.65;;;33.60;67.90;;;;;;6701966;88;20239;-78
2021/07/23 16:04:16;;;;;;;19.05;12.85;;;33.70;67.50;;;;;;6700874;88;20193;-78
2021/07/23 16:14:17;;;;;;;90.80;70.20;;;32.90;66.90;;;;;;6701036;88;20251;-78
2021/07/23 16:24:17;;;;;;;10.82;8.20;;;33.00;65.70;;;;;;6700644;88;20625;-79
2021/07/23 16:34:18;;;;;;;10.95;7.87;;;33.10;65.60;;;;;;6699333;88;20264;-79
2021/07/23 16:44:18;;;;;;;14.45;10.30;;;32.50;65.30;;;;;;6698561;88;20276;-77
2021/07/23 16:54:19;;;;;;;10.93;6.32;;;31.20;67.70;;;;;;6699970;88;20193;-77
2021/07/23 17:04:19;;;;;;;8.45;6.35;;;31.20;67.80;;;;;;6703221;88;20663;-78
2021/07/23 17:14:20;;;;;;;83.70;69.43;;;30.70;67.90;;;;;;6709386;88;20209;-81
2021/07/23 17:24:20;;;;;;;103.68;84.13;;;31.00;68.80;;;;;;6713815;88;20543;-79
2021/07/23 17:34:21;;;;;;;10.48;7.00;;;32.00;68.20;;;;;;6711848;88;20189;-77
2021/07/23 17:44:22;;;;;;;10.05;6.25;;;31.90;68.00;;;;;;6696803;88;20633;-77
2021/07/23 17:54:22;;;;;;;7.97;6.32;;;31.70;69.10;;;;;;6700587;88;20717;-77
2021/07/23 18:04:23;;;;;;;10.30;6.50;;;31.40;68.90;;;;;;6699868;88;20270;-79
2021/07/23 18:14:23;;;;;;;9.20;6.72;;;30.60;70.00;;;;;;6700000;88;20194;-78
2021/07/23 18:34:48;;;;;;;8.60;6.15;;;29.20;72.70;;;;;;6750102;77;20191;-84
2021/07/23 19:05:54;;;;;;;10.27;6.90;;;27.50;77.30;;;;;;6734724;88;20149;-83
2021/07/23 19:15:55;;;;;;;10.23;6.57;;;26.80;79.30;;;;;;6734320;88;20229;-83
2021/07/23 19:25:56;;;;;;;10.73;6.60;;;26.40;81.00;;;;;;6731812;88;20763;-82
2021/07/23 19:35:56;;;;;;;9.57;6.90;;;26.10;82.70;;;;;;6731817;88;20165;-83
2021/07/23 19:45:57;;;;;;;9.65;6.62;;;25.40;85.20;;;;;;6731702;88;20834;-83
2021/07/23 19:55:58;;;;;;;15.43;9.07;;;25.00;90.00;;;;;;6733181;88;20224;-84
2021/07/23 20:05:58;;;;;;;14.63;9.02;;;24.60;92.00;;;;;;6733793;88;20146;-84
2021/07/23 20:15:59;;;;;;;11.70;7.07;;;24.50;93.10;;;;;;6734294;88;20165;-85
2021/07/23 20:26:00;;;;;;;13.70;8.07;;;24.00;95.10;;;;;;6714670;88;21178;-82
2021/07/23 20:36:00;;;;;;;13.07;7.60;;;23.80;97.30;;;;;;6714078;88;20214;-83
2021/07/23 20:46:01;;;;;;;12.02;7.55;;;23.50;98.80;;;;;;6713847;88;20224;-83
2021/07/23 20:56:08;;;;;;;10.25;6.97;;;23.30;99.90;;;;;;6728919;88;20209;-83
2021/07/23 21:06:13;;;;;;;13.70;6.82;;;23.00;99.90;;;;;;6688545;89;20159;-83
2021/07/23 21:16:18;;;;;;;10.00;7.03;;;22.70;99.90;;;;;;6699290;89;20188;-83
2021/07/23 21:26:19;;;;;;;9.82;6.45;;;23.00;99.90;;;;;;6682236;89;20152;-82
2021/07/23 21:36:19;;;;;;;9.85;6.60;;;23.10;99.90;;;;;;6678780;89;20234;-82
2021/07/23 21:46:20;;;;;;;10.97;7.37;;;23.00;99.90;;;;;;6665326;89;20236;-83
2021/07/23 21:56:21;;;;;;;10.68;7.47;;;22.50;99.90;;;;;;6648672;89;20194;-83
2021/07/23 22:06:21;;;;;;;11.87;7.83;;;22.20;99.90;;;;;;6661643;89;20197;-83
2021/07/23 22:16:22;;;;;;;11.00;7.43;;;21.90;99.90;;;;;;6691143;89;20192;-83
2021/07/23 22:26:22;;;;;;;9.80;6.82;;;22.10;99.90;;;;;;6727118;88;20151;-83
2021/07/23 22:36:23;;;;;;;10.50;7.27;;;21.70;99.90;;;;;;6734531;88;20270;-83
2021/07/23 22:46:24;;;;;;;10.80;7.33;;;21.50;99.90;;;;;;6715275;88;20493;-82
2021/07/23 22:56:24;;;;;;;13.98;7.45;;;21.10;99.90;;;;;;6715162;88;20177;-83
2021/07/23 23:06:25;;;;;;;11.00;7.80;;;20.90;99.90;;;;;;6715154;88;20209;-82
2021/07/23 23:16:26;;;;;;;13.00;8.40;;;20.70;99.90;;;;;;6698215;88;20173;-83
2021/07/23 23:26:27;;;;;;;12.63;8.10;;;20.70;99.90;;;;;;6698256;88;20148;-84
2021/07/23 23:36:28;;;;;;;15.80;9.07;;;20.60;99.90;;;;;;6698040;88;20153;-83
2021/07/23 23:46:28;;;;;;;14.10;8.60;;;20.60;99.90;;;;;;6695451;88;20949;-83
2021/07/23 23:56:31;;;;;;;13.33;8.83;;;20.40;99.90;;;;;;6714446;88;20179;-84
